createdAt,value
2023-01-26T00:00:38.935Z,0
2023-01-26T00:01:38.860Z,0
2023-01-26T00:02:39.035Z,0
2023-01-26T00:03:41.122Z,0
2023-01-26T00:04:41.896Z,0
2023-01-26T00:05:38.864Z,0
2023-01-26T00:06:38.836Z,0
2023-01-26T00:07:38.843Z,0
2023-01-26T00:08:38.930Z,0
2023-01-26T00:09:42.207Z,0
2023-01-26T00:10:38.850Z,0
2023-01-26T00:11:38.963Z,0
2023-01-26T00:12:38.860Z,0
2023-01-26T00:13:38.872Z,0
2023-01-26T00:14:38.917Z,0
2023-01-26T00:15:41.631Z,0
2023-01-26T00:16:39.001Z,0
2023-01-26T00:17:38.862Z,0
2023-01-26T00:18:38.916Z,0
2023-01-26T00:19:38.863Z,0
2023-01-26T00:20:41.665Z,0
2023-01-26T00:21:38.898Z,0
2023-01-26T00:22:38.924Z,0
2023-01-26T00:23:38.914Z,0
2023-01-26T00:24:39.024Z,0
2023-01-26T00:25:38.854Z,0
2023-01-26T00:26:41.712Z,0
2023-01-26T00:27:38.930Z,0
2023-01-26T00:28:38.875Z,0
2023-01-26T00:29:38.870Z,0
2023-01-26T00:30:39.189Z,0
2023-01-26T00:31:42.292Z,0
2023-01-26T00:32:38.958Z,0
2023-01-26T00:33:38.913Z,0
2023-01-26T00:34:38.878Z,0
2023-01-26T00:35:38.933Z,0
2023-01-26T00:36:38.894Z,0
2023-01-26T00:37:41.800Z,0
2023-01-26T00:38:38.911Z,0
2023-01-26T00:39:38.967Z,0
2023-01-26T00:40:39.203Z,0
2023-01-26T00:41:38.915Z,0
2023-01-26T00:42:42.018Z,0
2023-01-26T00:43:38.963Z,0
2023-01-26T00:44:38.912Z,0
2023-01-26T00:45:38.966Z,0
2023-01-26T00:46:39.164Z,0
2023-01-26T00:47:38.946Z,0
2023-01-26T00:48:38.913Z,0
2023-01-26T00:49:38.941Z,0
2023-01-26T00:50:38.984Z,0
2023-01-26T00:51:38.935Z,0
2023-01-26T00:52:38.921Z,0
2023-01-26T00:53:41.961Z,0
2023-01-26T00:54:38.926Z,0
2023-01-26T00:55:38.963Z,0
2023-01-26T00:56:38.936Z,0
2023-01-26T00:57:38.938Z,0
2023-01-26T00:58:38.916Z,0
2023-01-26T00:59:38.939Z,0
2023-01-26T01:00:39.254Z,0
2023-01-26T01:01:39.141Z,0
2023-01-26T01:02:38.946Z,0
2023-01-26T01:03:39.020Z,0
2023-01-26T01:04:41.988Z,0
2023-01-26T01:05:38.971Z,0
2023-01-26T01:06:39.029Z,0
2023-01-26T01:07:38.946Z,0
2023-01-26T01:08:41.986Z,0
2023-01-26T01:09:38.938Z,0
2023-01-26T01:10:39.000Z,0
2023-01-26T01:11:38.932Z,0
2023-01-26T01:12:38.968Z,0
2023-01-26T01:13:38.945Z,0
2023-01-26T01:14:38.944Z,0
2023-01-26T01:15:41.807Z,0
2023-01-26T01:16:38.960Z,0
2023-01-26T01:17:38.944Z,0
2023-01-26T01:18:39.086Z,0
2023-01-26T01:19:39.007Z,0
2023-01-26T01:20:40.181Z,0
2023-01-26T01:21:38.953Z,0
2023-01-26T01:22:38.962Z,0
2023-01-26T01:23:38.994Z,0
2023-01-26T01:24:38.974Z,0
2023-01-26T01:25:39.005Z,0
2023-01-26T01:26:42.055Z,0
2023-01-26T01:27:39.005Z,0
2023-01-26T01:28:41.743Z,0
2023-01-26T01:29:39.003Z,0
2023-01-26T01:30:39.026Z,0
2023-01-26T01:31:42.698Z,0
2023-01-26T01:32:39.005Z,0
2023-01-26T01:33:39.001Z,0
2023-01-26T01:34:38.993Z,0
2023-01-26T01:35:39.151Z,0
2023-01-26T01:36:39.021Z,0
2023-01-26T01:37:41.777Z,0
2023-01-26T01:38:39.103Z,0
2023-01-26T01:39:39.043Z,0
2023-01-26T01:40:39.038Z,0
2023-01-26T01:41:38.994Z,0
2023-01-26T01:42:42.077Z,0
2023-01-26T01:43:39.063Z,0
2023-01-26T01:44:39.027Z,0
2023-01-26T01:45:39.041Z,0
2023-01-26T01:46:39.454Z,0
2023-01-26T01:47:38.998Z,0
2023-01-26T01:48:39.049Z,0
2023-01-26T01:49:39.020Z,0
2023-01-26T01:50:39.058Z,0
2023-01-26T01:51:39.053Z,0
2023-01-26T01:52:39.022Z,0
2023-01-26T01:53:41.831Z,0
2023-01-26T01:54:39.044Z,0
2023-01-26T01:55:39.032Z,0
2023-01-26T01:56:39.038Z,0
2023-01-26T01:57:39.039Z,0
2023-01-26T01:58:39.079Z,0
2023-01-26T01:59:39.053Z,0
2023-01-26T02:00:39.266Z,0
2023-01-26T02:01:39.137Z,0
2023-01-26T02:02:39.058Z,0
2023-01-26T02:03:39.024Z,0
2023-01-26T02:04:39.039Z,0
2023-01-26T02:05:39.040Z,0
2023-01-26T02:06:39.064Z,0
2023-01-26T02:07:39.090Z,0
2023-01-26T02:08:39.128Z,0
2023-01-26T02:09:39.086Z,0
2023-01-26T02:10:39.058Z,0
2023-01-26T02:11:39.057Z,0
2023-01-26T02:12:39.031Z,0
2023-01-26T02:13:39.017Z,0
2023-01-26T02:14:39.083Z,0
2023-01-26T02:15:39.059Z,0
2023-01-26T02:16:39.263Z,0
2023-01-26T02:17:39.073Z,0
2023-01-26T02:18:39.072Z,0
2023-01-26T02:19:39.258Z,0
2023-01-26T02:20:42.147Z,0
2023-01-26T02:21:39.089Z,0
2023-01-26T02:22:39.165Z,0
2023-01-26T02:23:39.113Z,0
2023-01-26T02:24:39.049Z,0
2023-01-26T02:25:42.116Z,0
2023-01-26T02:26:39.053Z,0
2023-01-26T02:27:39.099Z,0
2023-01-26T02:28:39.125Z,0
2023-01-26T02:29:39.108Z,0
2023-01-26T02:30:39.343Z,0
2023-01-26T02:31:42.278Z,0
2023-01-26T02:32:39.121Z,0
2023-01-26T02:33:39.078Z,0
2023-01-26T02:34:39.320Z,0
2023-01-26T02:35:39.129Z,0
2023-01-26T02:36:42.199Z,0
2023-01-26T02:37:39.158Z,0
2023-01-26T02:38:41.645Z,0
2023-01-26T02:39:39.175Z,0
2023-01-26T02:40:39.109Z,0
2023-01-26T02:41:39.106Z,0
2023-01-26T02:42:42.131Z,0
2023-01-26T02:43:39.111Z,0
2023-01-26T02:44:39.124Z,0
2023-01-26T02:45:39.103Z,0
2023-01-26T02:46:39.315Z,0
2023-01-26T02:47:41.909Z,0
2023-01-26T02:48:39.118Z,0
2023-01-26T02:49:39.113Z,0
2023-01-26T02:50:39.089Z,0
2023-01-26T02:51:39.093Z,0
2023-01-26T02:52:39.104Z,0
2023-01-26T02:53:41.964Z,0
2023-01-26T02:54:39.133Z,0
2023-01-26T02:55:39.165Z,0
2023-01-26T02:56:39.158Z,0
2023-01-26T02:57:39.118Z,0
2023-01-26T02:58:41.907Z,0
2023-01-26T02:59:39.097Z,0
2023-01-26T03:00:39.700Z,0
2023-01-26T03:01:39.589Z,0
2023-01-26T03:02:39.184Z,0
2023-01-26T03:03:39.132Z,0
2023-01-26T03:04:39.230Z,0
2023-01-26T03:05:39.142Z,0
2023-01-26T03:06:39.128Z,0
2023-01-26T03:07:39.224Z,0
2023-01-26T03:08:39.214Z,0
2023-01-26T03:09:42.257Z,0
2023-01-26T03:10:39.166Z,0
2023-01-26T03:11:39.170Z,0
2023-01-26T03:12:39.176Z,0
2023-01-26T03:13:39.163Z,0
2023-01-26T03:14:39.163Z,0
2023-01-26T03:15:39.122Z,0
2023-01-26T03:16:39.235Z,0
2023-01-26T03:17:39.156Z,0
2023-01-26T03:18:39.366Z,0
2023-01-26T03:19:39.159Z,0
2023-01-26T03:20:41.953Z,0
2023-01-26T03:21:39.169Z,0
2023-01-26T03:22:39.178Z,0
2023-01-26T03:23:39.168Z,0
2023-01-26T03:24:39.164Z,0
2023-01-26T03:25:39.189Z,0
2023-01-26T03:26:39.154Z,0
2023-01-26T03:27:39.264Z,0
2023-01-26T03:28:39.169Z,0
2023-01-26T03:29:39.430Z,0
2023-01-26T03:30:39.363Z,0
2023-01-26T03:31:42.423Z,0
2023-01-26T03:32:39.146Z,0
2023-01-26T03:33:39.150Z,0
2023-01-26T03:34:39.180Z,0
2023-01-26T03:35:39.287Z,0
2023-01-26T03:36:39.272Z,0
2023-01-26T03:37:39.191Z,0
2023-01-26T03:38:39.157Z,0
2023-01-26T03:39:39.179Z,0
2023-01-26T03:40:39.180Z,0
2023-01-26T03:41:39.209Z,0
2023-01-26T03:42:42.225Z,0
2023-01-26T03:43:39.180Z,0
2023-01-26T03:44:39.020Z,0
2023-01-26T03:45:39.222Z,0
2023-01-26T03:46:39.522Z,0
2023-01-26T03:47:42.297Z,0
2023-01-26T03:48:39.152Z,0
2023-01-26T03:49:39.166Z,0
2023-01-26T03:50:39.215Z,0
2023-01-26T03:51:39.200Z,0
2023-01-26T03:52:39.202Z,0
2023-01-26T03:53:42.208Z,0
2023-01-26T03:54:39.305Z,0
2023-01-26T03:55:41.978Z,0
2023-01-26T03:56:39.691Z,0
2023-01-26T03:57:39.225Z,0
2023-01-26T03:58:42.277Z,0
2023-01-26T03:59:39.270Z,0
2023-01-26T04:00:39.362Z,0
2023-01-26T04:01:39.262Z,0
2023-01-26T04:02:39.185Z,0
2023-01-26T04:03:39.194Z,0
2023-01-26T04:04:42.284Z,0
2023-01-26T04:05:39.245Z,0
2023-01-26T04:06:39.281Z,0
2023-01-26T04:07:39.255Z,0
2023-01-26T04:08:39.236Z,0
2023-01-26T04:09:42.297Z,0
2023-01-26T04:10:39.238Z,0
2023-01-26T04:11:39.247Z,0
2023-01-26T04:12:39.202Z,0
2023-01-26T04:13:39.224Z,0
2023-01-26T04:14:54.851Z,0
2023-01-26T04:15:39.262Z,0
2023-01-26T04:16:39.479Z,0
2023-01-26T04:17:39.295Z,0
2023-01-26T04:18:39.218Z,0
2023-01-26T04:19:39.266Z,0
2023-01-26T04:20:42.172Z,0
2023-01-26T04:21:39.247Z,0
2023-01-26T04:22:39.235Z,0
2023-01-26T04:23:39.242Z,0
2023-01-26T04:24:39.426Z,0
2023-01-26T04:25:39.245Z,0
2023-01-26T04:26:39.432Z,0
2023-01-26T04:27:39.227Z,0
2023-01-26T04:28:39.250Z,0
2023-01-26T04:29:39.235Z,0
2023-01-26T04:30:39.460Z,0
2023-01-26T04:31:39.524Z,0
2023-01-26T04:32:39.255Z,0
2023-01-26T04:33:39.249Z,0
2023-01-26T04:34:39.248Z,0
2023-01-26T04:35:39.302Z,0
2023-01-26T04:36:39.273Z,0
2023-01-26T04:37:39.272Z,0
2023-01-26T04:38:39.254Z,0
2023-01-26T04:39:39.287Z,0
2023-01-26T04:40:39.257Z,0
2023-01-26T04:41:41.325Z,0
2023-01-26T04:42:39.326Z,0
2023-01-26T04:43:42.240Z,0
2023-01-26T04:44:39.283Z,0
2023-01-26T04:45:39.721Z,0
2023-01-26T04:46:39.433Z,0
2023-01-26T04:47:43.138Z,0
2023-01-26T04:48:39.257Z,0
2023-01-26T04:49:39.263Z,0
2023-01-26T04:50:39.303Z,0
2023-01-26T04:51:39.343Z,0
2023-01-26T04:52:42.117Z,0
2023-01-26T04:53:39.288Z,0
2023-01-26T04:54:39.278Z,0
2023-01-26T04:55:39.273Z,0
2023-01-26T04:56:39.439Z,0
2023-01-26T04:57:39.305Z,0
2023-01-26T04:58:43.163Z,0
2023-01-26T04:59:39.314Z,0
2023-01-26T05:00:39.400Z,0
2023-01-26T05:01:40.350Z,0
2023-01-26T05:02:39.363Z,0
2023-01-26T05:03:42.377Z,0
2023-01-26T05:04:39.398Z,0
2023-01-26T05:05:39.285Z,0
2023-01-26T05:06:40.374Z,0
2023-01-26T05:07:39.311Z,0
2023-01-26T05:08:39.335Z,0
2023-01-26T05:09:42.332Z,0
2023-01-26T05:10:39.305Z,0
2023-01-26T05:11:40.376Z,0
2023-01-26T05:12:39.314Z,0
2023-01-26T05:13:39.333Z,0
2023-01-26T05:14:42.120Z,0
2023-01-26T05:15:39.345Z,0
2023-01-26T05:16:39.591Z,0
2023-01-26T05:17:39.344Z,0
2023-01-26T05:18:39.367Z,0
2023-01-26T05:19:39.707Z,0
2023-01-26T05:20:42.148Z,0
2023-01-26T05:21:39.396Z,0
2023-01-26T05:22:39.311Z,0
2023-01-26T05:23:39.326Z,0
2023-01-26T05:24:39.382Z,0
2023-01-26T05:25:42.378Z,0
2023-01-26T05:26:39.357Z,0
2023-01-26T05:27:39.353Z,0
2023-01-26T05:28:39.353Z,0
2023-01-26T05:29:39.374Z,0
2023-01-26T05:30:39.592Z,0
2023-01-26T05:31:42.381Z,0
2023-01-26T05:32:39.322Z,0
2023-01-26T05:33:39.365Z,0
2023-01-26T05:34:39.406Z,0
2023-01-26T05:35:39.438Z,0
2023-01-26T05:36:43.044Z,0
2023-01-26T05:37:39.360Z,0
2023-01-26T05:38:39.372Z,0
2023-01-26T05:39:39.369Z,0
2023-01-26T05:40:39.367Z,0
2023-01-26T05:41:39.411Z,0
2023-01-26T05:42:39.334Z,0
2023-01-26T05:43:39.362Z,0
2023-01-26T05:44:39.372Z,0
2023-01-26T05:45:39.649Z,0
2023-01-26T05:46:39.433Z,0
2023-01-26T05:47:42.452Z,0
2023-01-26T05:48:39.347Z,0
2023-01-26T05:49:39.371Z,0
2023-01-26T05:50:39.440Z,0
2023-01-26T05:51:39.386Z,0
2023-01-26T05:52:43.466Z,0
2023-01-26T05:53:39.362Z,0
2023-01-26T05:54:39.392Z,0
2023-01-26T05:55:39.425Z,0
2023-01-26T05:56:39.398Z,0
2023-01-26T05:57:39.405Z,0
2023-01-26T05:58:42.357Z,0
2023-01-26T05:59:39.403Z,0
2023-01-26T06:00:39.447Z,0
2023-01-26T06:01:39.410Z,0
2023-01-26T06:02:39.509Z,0
2023-01-26T06:03:39.435Z,0
2023-01-26T06:04:39.661Z,0
2023-01-26T06:05:39.438Z,0
2023-01-26T06:06:39.550Z,0
2023-01-26T06:07:40.470Z,0
2023-01-26T06:08:39.402Z,0
2023-01-26T06:09:42.233Z,0
2023-01-26T06:10:39.448Z,0
2023-01-26T06:11:39.431Z,0
2023-01-26T06:12:39.412Z,0
2023-01-26T06:13:39.244Z,0
2023-01-26T06:14:42.275Z,0
2023-01-26T06:15:39.436Z,0
2023-01-26T06:16:39.642Z,0
2023-01-26T06:17:39.488Z,0
2023-01-26T06:18:39.435Z,0
2023-01-26T06:19:41.500Z,0
2023-01-26T06:20:44.637Z,0
2023-01-26T06:21:39.442Z,0
2023-01-26T06:22:39.525Z,0
2023-01-26T06:23:39.415Z,0
2023-01-26T06:24:39.498Z,0
2023-01-26T06:25:42.469Z,0
2023-01-26T06:26:39.411Z,0
2023-01-26T06:27:39.447Z,0
2023-01-26T06:28:39.449Z,0
2023-01-26T06:29:39.428Z,0
2023-01-26T06:30:39.999Z,0
2023-01-26T06:31:42.794Z,0
2023-01-26T06:32:39.468Z,0
2023-01-26T06:33:39.485Z,0
2023-01-26T06:34:39.455Z,0
2023-01-26T06:35:39.457Z,0
2023-01-26T06:36:44.788Z,0
2023-01-26T06:37:39.463Z,0
2023-01-26T06:38:39.533Z,0
2023-01-26T06:39:39.413Z,0
2023-01-26T06:40:39.467Z,0
2023-01-26T06:41:39.436Z,0
2023-01-26T06:42:39.459Z,0
2023-01-26T06:43:39.523Z,0
2023-01-26T06:44:39.467Z,0
2023-01-26T06:45:39.496Z,0
2023-01-26T06:46:39.457Z,0
2023-01-26T06:47:43.841Z,0
2023-01-26T06:48:39.463Z,0
2023-01-26T06:49:39.506Z,0
2023-01-26T06:50:39.485Z,0
2023-01-26T06:51:39.537Z,0
2023-01-26T06:52:41.404Z,4
2023-01-26T06:53:39.488Z,4
2023-01-26T06:54:39.503Z,4
2023-01-26T06:55:39.480Z,0
2023-01-26T06:56:39.484Z,0
2023-01-26T06:57:39.484Z,0
2023-01-26T06:58:39.488Z,0
2023-01-26T06:59:42.180Z,4
2023-01-26T07:00:39.491Z,4
2023-01-26T07:01:39.869Z,4
2023-01-26T07:02:39.969Z,0
2023-01-26T07:03:39.511Z,0
2023-01-26T07:04:39.492Z,0
2023-01-26T07:05:39.524Z,0
2023-01-26T07:06:39.505Z,4
2023-01-26T07:07:39.570Z,4
2023-01-26T07:08:39.541Z,4
2023-01-26T07:09:39.486Z,0
2023-01-26T07:10:39.533Z,4
2023-01-26T07:11:39.526Z,4
2023-01-26T07:12:39.538Z,4
2023-01-26T07:13:39.517Z,4
2023-01-26T07:14:42.519Z,4
2023-01-26T07:15:39.492Z,4
2023-01-26T07:16:41.148Z,4
2023-01-26T07:17:39.575Z,4
2023-01-26T07:18:40.532Z,4
2023-01-26T07:19:42.361Z,4
2023-01-26T07:20:39.551Z,4
2023-01-26T07:21:39.531Z,4
2023-01-26T07:22:39.568Z,4
2023-01-26T07:23:41.729Z,4
2023-01-26T07:24:39.557Z,4
2023-01-26T07:25:42.706Z,4
2023-01-26T07:26:39.559Z,4
2023-01-26T07:27:39.544Z,4
2023-01-26T07:28:42.355Z,4
2023-01-26T07:29:39.513Z,4
2023-01-26T07:30:42.798Z,4
2023-01-26T07:31:39.662Z,4
2023-01-26T07:32:39.586Z,4
2023-01-26T07:33:39.526Z,4
2023-01-26T07:34:39.536Z,4
2023-01-26T07:35:39.589Z,4
2023-01-26T07:36:42.606Z,8
2023-01-26T07:37:39.551Z,8
2023-01-26T07:38:39.534Z,8
2023-01-26T07:39:39.530Z,8
2023-01-26T07:40:39.574Z,8
2023-01-26T07:41:42.918Z,8
2023-01-26T07:42:39.578Z,8
2023-01-26T07:43:39.735Z,4
2023-01-26T07:44:39.610Z,8
2023-01-26T07:45:39.550Z,8
2023-01-26T07:46:39.800Z,8
2023-01-26T07:47:42.388Z,8
2023-01-26T07:48:39.550Z,8
2023-01-26T07:49:39.533Z,8
2023-01-26T07:50:39.569Z,8
2023-01-26T07:51:39.564Z,12
2023-01-26T07:52:42.378Z,8
2023-01-26T07:53:39.678Z,12
2023-01-26T07:54:39.586Z,12
2023-01-26T07:55:39.632Z,8
2023-01-26T07:56:39.761Z,12
2023-01-26T07:57:39.676Z,12
2023-01-26T07:58:39.573Z,12
2023-01-26T07:59:39.564Z,12
2023-01-26T08:00:39.575Z,16
2023-01-26T08:01:39.765Z,16
2023-01-26T08:02:39.757Z,12
2023-01-26T08:03:42.833Z,16
2023-01-26T08:04:39.563Z,12
2023-01-26T08:05:39.797Z,16
2023-01-26T08:06:40.107Z,20
2023-01-26T08:07:40.735Z,20
2023-01-26T08:08:39.587Z,20
2023-01-26T08:09:39.593Z,20
2023-01-26T08:10:39.660Z,20
2023-01-26T08:11:39.687Z,24
2023-01-26T08:12:44.059Z,20
2023-01-26T08:13:42.960Z,16
2023-01-26T08:14:52.984Z,20
2023-01-26T08:15:39.593Z,20
2023-01-26T08:16:39.868Z,16
2023-01-26T08:17:39.708Z,16
2023-01-26T08:18:39.595Z,16
2023-01-26T08:19:39.597Z,16
2023-01-26T08:20:39.641Z,20
2023-01-26T08:21:39.630Z,24
2023-01-26T08:22:39.619Z,20
2023-01-26T08:23:39.634Z,20
2023-01-26T08:24:39.660Z,16
2023-01-26T08:25:42.806Z,16
2023-01-26T08:26:39.654Z,20
2023-01-26T08:27:39.629Z,16
2023-01-26T08:28:39.694Z,16
2023-01-26T08:29:39.676Z,16
2023-01-26T08:30:39.706Z,16
2023-01-26T08:31:39.817Z,16
2023-01-26T08:32:39.661Z,16
2023-01-26T08:33:39.653Z,16
2023-01-26T08:34:39.660Z,16
2023-01-26T08:35:39.670Z,12
2023-01-26T08:36:42.422Z,16
2023-01-26T08:37:39.684Z,16
2023-01-26T08:38:39.654Z,16
2023-01-26T08:39:39.732Z,16
2023-01-26T08:40:39.649Z,16
2023-01-26T08:41:42.756Z,16
2023-01-26T08:42:39.737Z,16
2023-01-26T08:43:39.667Z,16
2023-01-26T08:44:39.706Z,16
2023-01-26T08:45:39.883Z,16
2023-01-26T08:46:39.628Z,16
2023-01-26T08:47:42.717Z,20
2023-01-26T08:48:39.699Z,16
2023-01-26T08:49:39.674Z,20
2023-01-26T08:50:39.671Z,16
2023-01-26T08:51:39.635Z,16
2023-01-26T08:52:40.513Z,20
2023-01-26T08:53:39.691Z,20
2023-01-26T08:54:39.683Z,24
2023-01-26T08:55:39.704Z,24
2023-01-26T08:56:39.802Z,20
2023-01-26T08:57:39.669Z,24
2023-01-26T08:58:42.741Z,24
2023-01-26T08:59:39.683Z,24
2023-01-26T09:00:39.765Z,28
2023-01-26T09:01:39.824Z,28
2023-01-26T09:02:40.275Z,28
2023-01-26T09:03:42.837Z,32
2023-01-26T09:04:39.691Z,32
2023-01-26T09:05:39.680Z,32
2023-01-26T09:06:39.713Z,32
2023-01-26T09:07:39.783Z,32
2023-01-26T09:08:39.749Z,32
2023-01-26T09:09:39.784Z,36
2023-01-26T09:10:39.742Z,36
2023-01-26T09:11:39.849Z,36
2023-01-26T09:12:43.002Z,36
2023-01-26T09:13:40.700Z,36
2023-01-26T09:14:42.812Z,40
2023-01-26T09:15:39.916Z,40
2023-01-26T09:16:40.184Z,36
2023-01-26T09:17:39.775Z,40
2023-01-26T09:18:39.844Z,40
2023-01-26T09:19:39.726Z,40
2023-01-26T09:20:39.716Z,44
2023-01-26T09:21:39.879Z,40
2023-01-26T09:22:39.721Z,40
2023-01-26T09:23:39.795Z,40
2023-01-26T09:24:39.688Z,40
2023-01-26T09:25:39.761Z,40
2023-01-26T09:26:39.718Z,40
2023-01-26T09:27:39.740Z,40
2023-01-26T09:28:39.743Z,40
2023-01-26T09:29:39.697Z,44
2023-01-26T09:30:40.285Z,40
2023-01-26T09:31:40.446Z,40
2023-01-26T09:32:39.842Z,44
2023-01-26T09:33:39.890Z,40
2023-01-26T09:34:39.820Z,40
2023-01-26T09:35:39.808Z,44
2023-01-26T09:36:41.562Z,44
2023-01-26T09:37:39.727Z,48
2023-01-26T09:38:39.728Z,44
2023-01-26T09:39:39.802Z,44
2023-01-26T09:40:39.743Z,40
2023-01-26T09:41:42.619Z,40
2023-01-26T09:42:39.755Z,44
2023-01-26T09:43:39.768Z,44
2023-01-26T09:44:39.722Z,44
2023-01-26T09:45:39.835Z,44
2023-01-26T09:46:42.925Z,44
2023-01-26T09:47:39.773Z,44
2023-01-26T09:48:39.827Z,44
2023-01-26T09:49:39.870Z,48
2023-01-26T09:50:39.778Z,44
2023-01-26T09:51:39.847Z,48
2023-01-26T09:52:42.812Z,48
2023-01-26T09:53:39.737Z,44
2023-01-26T09:54:39.724Z,48
2023-01-26T09:55:39.842Z,44
2023-01-26T09:56:39.763Z,44
2023-01-26T09:57:42.695Z,48
2023-01-26T09:58:39.757Z,48
2023-01-26T09:59:39.822Z,48
2023-01-26T10:00:39.731Z,52
2023-01-26T10:01:40.134Z,52
2023-01-26T10:02:40.055Z,52
2023-01-26T10:03:42.595Z,52
2023-01-26T10:04:39.968Z,52
2023-01-26T10:05:39.803Z,52
2023-01-26T10:06:39.772Z,52
2023-01-26T10:07:39.816Z,52
2023-01-26T10:08:42.809Z,56
2023-01-26T10:09:39.778Z,52
2023-01-26T10:10:39.776Z,56
2023-01-26T10:11:39.783Z,56
2023-01-26T10:12:39.864Z,60
2023-01-26T10:13:39.822Z,56
2023-01-26T10:14:42.768Z,60
2023-01-26T10:15:40.289Z,60
2023-01-26T10:16:39.783Z,60
2023-01-26T10:17:39.832Z,64
2023-01-26T10:18:39.804Z,60
2023-01-26T10:19:42.922Z,64
2023-01-26T10:20:39.838Z,64
2023-01-26T10:21:39.858Z,60
2023-01-26T10:22:39.860Z,64
2023-01-26T10:23:39.912Z,64
2023-01-26T10:24:39.826Z,64
2023-01-26T10:25:42.872Z,64
2023-01-26T10:26:39.775Z,64
2023-01-26T10:27:39.864Z,68
2023-01-26T10:28:39.842Z,68
2023-01-26T10:29:39.865Z,72
2023-01-26T10:30:43.734Z,76
2023-01-26T10:31:40.360Z,76
2023-01-26T10:32:40.187Z,80
2023-01-26T10:33:40.335Z,80
2023-01-26T10:34:39.879Z,76
2023-01-26T10:35:39.885Z,72
2023-01-26T10:36:39.873Z,64
2023-01-26T10:37:39.886Z,60
2023-01-26T10:38:40.010Z,56
2023-01-26T10:39:39.848Z,56
2023-01-26T10:40:39.829Z,52
2023-01-26T10:41:42.897Z,56
2023-01-26T10:42:40.657Z,56
2023-01-26T10:43:39.909Z,60
2023-01-26T10:44:39.832Z,60
2023-01-26T10:45:39.898Z,64
2023-01-26T10:46:40.037Z,64
2023-01-26T10:47:39.907Z,68
2023-01-26T10:48:39.834Z,76
2023-01-26T10:49:39.837Z,80
2023-01-26T10:50:40.059Z,80
2023-01-26T10:51:39.902Z,80
2023-01-26T10:52:47.174Z,88
2023-01-26T10:53:39.842Z,92
2023-01-26T10:54:39.870Z,96
2023-01-26T10:55:42.914Z,100
2023-01-26T10:56:39.920Z,100
2023-01-26T10:57:39.858Z,104
2023-01-26T10:58:44.062Z,100
2023-01-26T10:59:39.849Z,100
2023-01-26T11:00:39.861Z,96
2023-01-26T11:01:40.126Z,88
2023-01-26T11:02:39.948Z,92
2023-01-26T11:03:43.067Z,88
2023-01-26T11:04:40.343Z,88
2023-01-26T11:05:39.958Z,88
2023-01-26T11:06:40.098Z,88
2023-01-26T11:07:39.953Z,88
2023-01-26T11:08:39.957Z,92
2023-01-26T11:09:39.844Z,92
2023-01-26T11:10:40.259Z,92
2023-01-26T11:11:40.064Z,92
2023-01-26T11:12:39.882Z,92
2023-01-26T11:13:39.932Z,96
2023-01-26T11:14:42.987Z,96
2023-01-26T11:15:39.892Z,92
2023-01-26T11:16:40.143Z,92
2023-01-26T11:17:39.872Z,88
2023-01-26T11:18:39.913Z,92
2023-01-26T11:19:42.737Z,92
2023-01-26T11:20:39.857Z,88
2023-01-26T11:21:39.910Z,88
2023-01-26T11:22:42.983Z,88
2023-01-26T11:23:40.049Z,88
2023-01-26T11:24:42.442Z,88
2023-01-26T11:25:42.922Z,88
2023-01-26T11:26:39.892Z,88
2023-01-26T11:27:39.960Z,84
2023-01-26T11:28:39.918Z,84
2023-01-26T11:29:39.913Z,80
2023-01-26T11:30:43.079Z,76
2023-01-26T11:31:41.929Z,80
2023-01-26T11:32:39.918Z,76
2023-01-26T11:33:39.957Z,76
2023-01-26T11:34:40.021Z,72
2023-01-26T11:35:39.895Z,72
2023-01-26T11:36:39.900Z,72
2023-01-26T11:37:39.959Z,68
2023-01-26T11:38:39.991Z,68
2023-01-26T11:39:39.962Z,68
2023-01-26T11:40:39.937Z,68
2023-01-26T11:41:42.661Z,68
2023-01-26T11:42:42.659Z,64
2023-01-26T11:43:39.931Z,64
2023-01-26T11:44:39.957Z,60
2023-01-26T11:45:40.050Z,60
2023-01-26T11:46:39.932Z,64
2023-01-26T11:47:39.955Z,68
2023-01-26T11:48:39.944Z,72
2023-01-26T11:49:39.995Z,72
2023-01-26T11:50:39.959Z,72
2023-01-26T11:51:39.955Z,72
2023-01-26T11:52:39.916Z,76
2023-01-26T11:53:39.966Z,80
2023-01-26T11:54:39.950Z,84
2023-01-26T11:55:39.994Z,84
2023-01-26T11:56:40.012Z,84
2023-01-26T11:57:39.980Z,80
2023-01-26T11:58:39.954Z,80
2023-01-26T11:59:41.726Z,84
2023-01-26T12:00:39.965Z,84
2023-01-26T12:01:39.925Z,84
2023-01-26T12:02:40.165Z,84
2023-01-26T12:03:40.223Z,84
2023-01-26T12:04:39.989Z,88
2023-01-26T12:05:39.977Z,84
2023-01-26T12:06:39.975Z,84
2023-01-26T12:07:39.968Z,88
2023-01-26T12:08:43.044Z,88
2023-01-26T12:09:40.096Z,84
2023-01-26T12:10:40.000Z,88
2023-01-26T12:11:40.065Z,88
2023-01-26T12:12:42.818Z,88
2023-01-26T12:13:41.694Z,88
2023-01-26T12:14:40.176Z,84
2023-01-26T12:15:40.042Z,88
2023-01-26T12:16:40.185Z,88
2023-01-26T12:17:39.992Z,84
2023-01-26T12:19:14.018Z,84
2023-01-26T12:19:42.871Z,84
2023-01-26T12:20:39.972Z,84
2023-01-26T12:21:39.986Z,76
2023-01-26T12:22:41.285Z,76
2023-01-26T12:23:40.001Z,72
2023-01-26T12:25:24.329Z,68
2023-01-26T12:25:42.567Z,64
2023-01-26T12:26:39.979Z,64
2023-01-26T12:27:40.422Z,68
2023-01-26T12:28:40.043Z,68
2023-01-26T12:29:39.993Z,68
2023-01-26T12:30:44.085Z,64
2023-01-26T12:31:40.722Z,64
2023-01-26T12:32:40.018Z,64
2023-01-26T12:33:40.064Z,68
2023-01-26T12:34:40.652Z,68
2023-01-26T12:35:43.081Z,68
2023-01-26T12:36:40.027Z,68
2023-01-26T12:37:40.011Z,68
2023-01-26T12:38:39.991Z,68
2023-01-26T12:39:42.080Z,68
2023-01-26T12:40:40.022Z,60
2023-01-26T12:41:42.851Z,64
2023-01-26T12:42:40.057Z,64
2023-01-26T12:43:40.064Z,60
2023-01-26T12:44:40.121Z,60
2023-01-26T12:45:40.009Z,60
2023-01-26T12:46:43.116Z,56
2023-01-26T12:47:40.075Z,56
2023-01-26T12:48:40.012Z,56
2023-01-26T12:49:40.620Z,56
2023-01-26T12:50:40.071Z,56
2023-01-26T12:51:40.189Z,56
2023-01-26T12:52:42.822Z,56
2023-01-26T12:53:42.423Z,52
2023-01-26T12:54:40.060Z,52
2023-01-26T12:55:40.071Z,52
2023-01-26T12:56:40.176Z,52
2023-01-26T12:57:45.017Z,52
2023-01-26T12:58:40.075Z,48
2023-01-26T12:59:54.515Z,48
2023-01-26T13:00:40.068Z,48
2023-01-26T13:01:40.487Z,48
2023-01-26T13:02:41.390Z,48
2023-01-26T13:03:43.045Z,48
2023-01-26T13:04:40.216Z,48
2023-01-26T13:05:40.121Z,44
2023-01-26T13:06:40.177Z,48
2023-01-26T13:07:40.360Z,44
2023-01-26T13:08:42.979Z,48
2023-01-26T13:09:40.041Z,44
2023-01-26T13:10:40.122Z,44
2023-01-26T13:11:40.102Z,44
2023-01-26T13:12:40.239Z,48
2023-01-26T13:13:40.129Z,48
2023-01-26T13:14:40.174Z,48
2023-01-26T13:15:40.692Z,44
2023-01-26T13:16:40.121Z,44
2023-01-26T13:17:40.234Z,44
2023-01-26T13:18:40.059Z,44
2023-01-26T13:19:43.032Z,44
2023-01-26T13:20:41.120Z,40
2023-01-26T13:21:40.102Z,40
2023-01-26T13:22:40.125Z,40
2023-01-26T13:23:40.115Z,40
2023-01-26T13:24:40.191Z,44
2023-01-26T13:25:40.209Z,40
2023-01-26T13:26:40.153Z,40
2023-01-26T13:27:40.139Z,40
2023-01-26T13:28:40.104Z,40
2023-01-26T13:29:41.142Z,40
2023-01-26T13:30:43.456Z,40
2023-01-26T13:31:40.421Z,44
2023-01-26T13:32:40.108Z,44
2023-01-26T13:33:42.827Z,40
2023-01-26T13:34:40.225Z,44
2023-01-26T13:35:43.598Z,44
2023-01-26T13:36:40.123Z,44
2023-01-26T13:37:40.132Z,48
2023-01-26T13:38:40.133Z,44
2023-01-26T13:39:40.159Z,44
2023-01-26T13:40:40.316Z,44
2023-01-26T13:41:42.906Z,44
2023-01-26T13:42:40.199Z,44
2023-01-26T13:43:40.165Z,44
2023-01-26T13:44:40.195Z,44
2023-01-26T13:45:40.204Z,44
2023-01-26T13:46:43.596Z,44
2023-01-26T13:47:48.987Z,44
2023-01-26T13:48:41.892Z,44
2023-01-26T13:49:44.977Z,44
2023-01-26T13:50:40.237Z,44
2023-01-26T13:51:40.160Z,40
2023-01-26T13:52:48.469Z,44
2023-01-26T13:53:40.160Z,44
2023-01-26T13:54:41.165Z,40
2023-01-26T13:55:43.366Z,40
2023-01-26T13:56:40.149Z,40
2023-01-26T13:57:43.246Z,40
2023-01-26T13:58:40.131Z,40
2023-01-26T13:59:40.161Z,40
2023-01-26T14:00:40.221Z,40
2023-01-26T14:01:40.523Z,40
2023-01-26T14:02:40.387Z,36
2023-01-26T14:03:40.374Z,36
2023-01-26T14:04:40.163Z,36
2023-01-26T14:05:40.194Z,36
2023-01-26T14:06:40.131Z,32
2023-01-26T14:07:40.166Z,36
2023-01-26T14:08:43.287Z,32
2023-01-26T14:09:40.162Z,28
2023-01-26T14:10:40.184Z,32
2023-01-26T14:11:40.141Z,28
2023-01-26T14:12:40.264Z,28
2023-01-26T14:13:40.162Z,24
2023-01-26T14:14:40.187Z,24
2023-01-26T14:15:40.271Z,28
2023-01-26T14:16:40.253Z,28
2023-01-26T14:17:40.200Z,24
2023-01-26T14:18:40.219Z,24
2023-01-26T14:19:40.156Z,24
2023-01-26T14:20:40.254Z,24
2023-01-26T14:21:40.220Z,24
2023-01-26T14:22:40.171Z,20
2023-01-26T14:23:42.966Z,24
2023-01-26T14:24:40.226Z,20
2023-01-26T14:25:40.243Z,20
2023-01-26T14:26:40.170Z,24
2023-01-26T14:27:40.216Z,20
2023-01-26T14:28:40.191Z,24
2023-01-26T14:29:40.162Z,24
2023-01-26T14:30:40.556Z,20
2023-01-26T14:31:40.390Z,24
2023-01-26T14:32:40.009Z,20